Umatilla, Florida
Current Conditions -  °F | °C
As of 10:53 AM on Tuesday 21 Oct 2014 (Local Time) from KLEE Reporting Station
Clear Clear  
Wind Chill: 76°   Ceiling: Unl
Heat Index: 76°   Visibility: 10mi
Dew Point: 69°   Wind: 7mph
Humidity: 79%   Direction: 340°NNW
Pressure: 30"   Gusts: NA
Location:  28.93°N, 81.67°W
Report Text: KLEE 211453Z 34006KT 10SM CLR 24/21 A3000 RMK AO2 SLP157 T02440206 51012
Loading
Personal Weather Stations






























Interactive Weather Map
Tropical Storm Tracking
New forecast layout! Learn more

10-Day Weather Forecast

Advertisements
Track Severe Weather on mobile